sensor_id;sensor_type;location;lat;lon;timestamp;P1;durP1;ratioP1;P2;durP2;ratioP2
59300;SDS011;45073;52.740;6.784;2022-12-01T00:00:10;41.20;;;20.10;;
59300;SDS011;45073;52.740;6.784;2022-12-01T00:02:37;40.60;;;19.90;;
59300;SDS011;45073;52.740;6.784;2022-12-01T00:05:02;41.42;;;19.55;;
59300;SDS011;45073;52.740;6.784;2022-12-01T00:07:28;40.50;;;21.35;;
59300;SDS011;45073;52.740;6.784;2022-12-01T00:09:54;42.95;;;22.23;;
59300;SDS011;45073;52.740;6.784;2022-12-01T00:12:38;39.72;;;19.58;;
59300;SDS011;45073;52.740;6.784;2022-12-01T00:15:07;41.85;;;20.48;;
59300;SDS011;45073;52.740;6.784;2022-12-01T00:17:34;39.65;;;19.75;;
59300;SDS011;45073;52.740;6.784;2022-12-01T00:20:00;40.03;;;20.77;;
59300;SDS011;45073;52.740;6.784;2022-12-01T00:22:26;41.00;;;21.42;;
59300;SDS011;45073;52.740;6.784;2022-12-01T00:24:51;44.33;;;21.38;;
59300;SDS011;45073;52.740;6.784;2022-12-01T00:27:17;40.95;;;20.20;;
59300;SDS011;45073;52.740;6.784;2022-12-01T00:29:42;41.05;;;18.92;;
59300;SDS011;45073;52.740;6.784;2022-12-01T00:32:09;42.90;;;19.65;;
59300;SDS011;45073;52.740;6.784;2022-12-01T00:34:34;43.97;;;19.83;;
59300;SDS011;45073;52.740;6.784;2022-12-01T00:37:01;42.60;;;20.60;;
59300;SDS011;45073;52.740;6.784;2022-12-01T00:39:27;49.58;;;22.02;;
59300;SDS011;45073;52.740;6.784;2022-12-01T00:41:53;45.33;;;21.58;;
59300;SDS011;45073;52.740;6.784;2022-12-01T00:44:19;46.00;;;22.90;;
59300;SDS011;45073;52.740;6.784;2022-12-01T00:46:44;48.70;;;22.85;;
59300;SDS011;45073;52.740;6.784;2022-12-01T00:49:11;50.17;;;24.20;;
59300;SDS011;45073;52.740;6.784;2022-12-01T00:51:37;47.83;;;22.38;;
59300;SDS011;45073;52.740;6.784;2022-12-01T00:54:03;46.92;;;20.70;;
59300;SDS011;45073;52.740;6.784;2022-12-01T00:56:28;49.85;;;23.17;;
59300;SDS011;45073;52.740;6.784;2022-12-01T00:58:54;49.67;;;23.20;;
59300;SDS011;45073;52.740;6.784;2022-12-01T01:01:20;50.50;;;20.83;;
59300;SDS011;45073;52.740;6.784;2022-12-01T01:03:45;50.50;;;22.33;;
59300;SDS011;45073;52.740;6.784;2022-12-01T01:06:11;57.95;;;24.50;;
59300;SDS011;45073;52.740;6.784;2022-12-01T01:08:37;57.88;;;24.75;;
59300;SDS011;45073;52.740;6.784;2022-12-01T01:11:04;57.58;;;22.90;;
59300;SDS011;45073;52.740;6.784;2022-12-01T01:13:31;56.60;;;24.33;;
59300;SDS011;45073;52.740;6.784;2022-12-01T01:15:58;60.08;;;23.60;;
59300;SDS011;45073;52.740;6.784;2022-12-01T01:18:34;56.05;;;23.55;;
59300;SDS011;45073;52.740;6.784;2022-12-01T01:21:01;50.97;;;21.73;;
59300;SDS011;45073;52.740;6.784;2022-12-01T01:23:30;61.90;;;26.67;;
59300;SDS011;45073;52.740;6.784;2022-12-01T01:26:00;52.67;;;22.77;;
59300;SDS011;45073;52.740;6.784;2022-12-01T01:28:30;69.35;;;26.80;;
59300;SDS011;45073;52.740;6.784;2022-12-01T01:30:56;60.33;;;25.05;;
59300;SDS011;45073;52.740;6.784;2022-12-01T01:33:21;54.63;;;24.00;;
59300;SDS011;45073;52.740;6.784;2022-12-01T01:35:47;57.58;;;22.50;;
59300;SDS011;45073;52.740;6.784;2022-12-01T01:38:12;63.22;;;26.13;;
59300;SDS011;45073;52.740;6.784;2022-12-01T01:40:45;60.78;;;24.65;;
59300;SDS011;45073;52.740;6.784;2022-12-01T01:43:14;65.68;;;25.10;;
59300;SDS011;45073;52.740;6.784;2022-12-01T01:45:41;62.40;;;24.85;;
59300;SDS011;45073;52.740;6.784;2022-12-01T01:48:08;64.90;;;29.10;;
59300;SDS011;45073;52.740;6.784;2022-12-01T01:50:37;62.13;;;27.60;;
59300;SDS011;45073;52.740;6.784;2022-12-01T01:53:03;56.08;;;24.10;;
59300;SDS011;45073;52.740;6.784;2022-12-01T01:55:34;63.78;;;26.15;;
59300;SDS011;45073;52.740;6.784;2022-12-01T01:58:00;65.43;;;26.92;;
59300;SDS011;45073;52.740;6.784;2022-12-01T02:00:29;63.10;;;23.75;;
59300;SDS011;45073;52.740;6.784;2022-12-01T02:02:55;60.88;;;25.80;;
59300;SDS011;45073;52.740;6.784;2022-12-01T02:05:26;54.65;;;24.48;;
59300;SDS011;45073;52.740;6.784;2022-12-01T02:07:55;58.70;;;24.65;;
59300;SDS011;45073;52.740;6.784;2022-12-01T02:11:06;59.15;;;25.92;;
59300;SDS011;45073;52.740;6.784;2022-12-01T02:13:43;62.22;;;25.95;;
59300;SDS011;45073;52.740;6.784;2022-12-01T02:30:40;59.37;;;24.37;;
59300;SDS011;45073;52.740;6.784;2022-12-01T02:33:29;62.70;;;24.80;;
59300;SDS011;45073;52.740;6.784;2022-12-01T02:36:14;61.22;;;24.55;;
59300;SDS011;45073;52.740;6.784;2022-12-01T02:41:14;61.55;;;25.85;;
59300;SDS011;45073;52.740;6.784;2022-12-01T02:46:23;60.08;;;25.35;;
59300;SDS011;45073;52.740;6.784;2022-12-01T02:48:56;59.20;;;25.10;;
59300;SDS011;45073;52.740;6.784;2022-12-01T02:51:27;58.03;;;24.65;;
59300;SDS011;45073;52.740;6.784;2022-12-01T02:53:58;65.40;;;26.05;;
59300;SDS011;45073;52.740;6.784;2022-12-01T02:56:26;50.95;;;24.00;;
59300;SDS011;45073;52.740;6.784;2022-12-01T02:58:52;57.47;;;26.85;;
59300;SDS011;45073;52.740;6.784;2022-12-01T03:03:52;58.72;;;26.85;;
59300;SDS011;45073;52.740;6.784;2022-12-01T03:06:40;65.28;;;26.05;;
59300;SDS011;45073;52.740;6.784;2022-12-01T03:17:19;60.38;;;26.45;;
59300;SDS011;45073;52.740;6.784;2022-12-01T03:19:56;61.63;;;26.15;;
59300;SDS011;45073;52.740;6.784;2022-12-01T03:22:35;58.53;;;24.92;;
59300;SDS011;45073;52.740;6.784;2022-12-01T03:25:10;64.07;;;26.20;;
59300;SDS011;45073;52.740;6.784;2022-12-01T03:27:39;64.75;;;26.73;;
59300;SDS011;45073;52.740;6.784;2022-12-01T03:30:07;57.88;;;26.27;;
59300;SDS011;45073;52.740;6.784;2022-12-01T03:35:19;61.35;;;28.27;;
59300;SDS011;45073;52.740;6.784;2022-12-01T03:37:51;53.05;;;25.60;;
59300;SDS011;45073;52.740;6.784;2022-12-01T03:42:54;54.95;;;26.25;;
59300;SDS011;45073;52.740;6.784;2022-12-01T03:45:29;56.05;;;24.35;;
59300;SDS011;45073;52.740;6.784;2022-12-01T03:47:58;56.05;;;26.38;;
59300;SDS011;45073;52.740;6.784;2022-12-01T03:50:25;53.17;;;24.40;;
59300;SDS011;45073;52.740;6.784;2022-12-01T03:53:21;56.65;;;26.17;;
59300;SDS011;45073;52.740;6.784;2022-12-01T03:55:55;57.65;;;26.33;;
59300;SDS011;45073;52.740;6.784;2022-12-01T03:58:33;56.47;;;25.75;;
59300;SDS011;45073;52.740;6.784;2022-12-01T04:01:11;50.83;;;22.52;;
59300;SDS011;45073;52.740;6.784;2022-12-01T04:03:37;57.40;;;27.73;;
59300;SDS011;45073;52.740;6.784;2022-12-01T04:06:03;58.25;;;26.63;;
59300;SDS011;45073;52.740;6.784;2022-12-01T04:08:29;56.40;;;26.25;;
59300;SDS011;45073;52.740;6.784;2022-12-01T04:10:55;51.42;;;24.45;;
59300;SDS011;45073;52.740;6.784;2022-12-01T04:13:21;53.42;;;25.60;;
59300;SDS011;45073;52.740;6.784;2022-12-01T04:15:48;54.50;;;25.38;;
59300;SDS011;45073;52.740;6.784;2022-12-01T04:18:15;52.63;;;25.42;;
59300;SDS011;45073;52.740;6.784;2022-12-01T04:20:41;55.33;;;26.63;;
59300;SDS011;45073;52.740;6.784;2022-12-01T04:23:07;54.92;;;26.40;;
59300;SDS011;45073;52.740;6.784;2022-12-01T04:25:33;55.13;;;26.98;;
59300;SDS011;45073;52.740;6.784;2022-12-01T04:27:59;52.47;;;25.55;;
59300;SDS011;45073;52.740;6.784;2022-12-01T04:30:24;50.10;;;23.60;;
59300;SDS011;45073;52.740;6.784;2022-12-01T04:32:50;57.95;;;27.15;;
59300;SDS011;45073;52.740;6.784;2022-12-01T04:35:16;53.13;;;26.67;;
59300;SDS011;45073;52.740;6.784;2022-12-01T04:37:41;53.17;;;27.25;;
59300;SDS011;45073;52.740;6.784;2022-12-01T04:40:07;56.90;;;25.98;;
59300;SDS011;45073;52.740;6.784;2022-12-01T04:42:33;52.88;;;23.45;;
59300;SDS011;45073;52.740;6.784;2022-12-01T04:44:58;53.22;;;25.15;;
59300;SDS011;45073;52.740;6.784;2022-12-01T04:47:24;54.88;;;25.40;;
59300;SDS011;45073;52.740;6.784;2022-12-01T04:49:50;55.22;;;25.63;;
59300;SDS011;45073;52.740;6.784;2022-12-01T04:52:15;53.70;;;25.17;;
59300;SDS011;45073;52.740;6.784;2022-12-01T04:54:41;52.65;;;24.55;;
59300;SDS011;45073;52.740;6.784;2022-12-01T04:57:07;58.95;;;26.17;;
59300;SDS011;45073;52.740;6.784;2022-12-01T04:59:33;54.25;;;25.30;;
59300;SDS011;45073;52.740;6.784;2022-12-01T05:01:59;54.20;;;26.23;;
59300;SDS011;45073;52.740;6.784;2022-12-01T05:04:26;55.58;;;27.48;;
59300;SDS011;45073;52.740;6.784;2022-12-01T05:06:52;55.88;;;27.75;;
59300;SDS011;45073;52.740;6.784;2022-12-01T05:09:19;55.05;;;24.83;;
59300;SDS011;45073;52.740;6.784;2022-12-01T05:11:45;53.47;;;25.48;;
59300;SDS011;45073;52.740;6.784;2022-12-01T05:14:11;52.75;;;24.67;;
59300;SDS011;45073;52.740;6.784;2022-12-01T05:16:36;58.42;;;24.98;;
59300;SDS011;45073;52.740;6.784;2022-12-01T05:19:03;52.72;;;25.40;;
59300;SDS011;45073;52.740;6.784;2022-12-01T05:21:48;61.05;;;26.88;;
59300;SDS011;45073;52.740;6.784;2022-12-01T05:24:15;54.38;;;27.70;;
59300;SDS011;45073;52.740;6.784;2022-12-01T05:26:41;59.10;;;27.65;;
59300;SDS011;45073;52.740;6.784;2022-12-01T05:29:08;52.78;;;26.00;;
59300;SDS011;45073;52.740;6.784;2022-12-01T05:31:34;53.28;;;26.58;;
59300;SDS011;45073;52.740;6.784;2022-12-01T05:34:00;57.47;;;26.13;;
59300;SDS011;45073;52.740;6.784;2022-12-01T05:36:25;52.05;;;25.95;;
59300;SDS011;45073;52.740;6.784;2022-12-01T05:38:51;56.55;;;27.08;;
59300;SDS011;45073;52.740;6.784;2022-12-01T05:41:17;63.72;;;27.10;;
59300;SDS011;45073;52.740;6.784;2022-12-01T05:43:42;61.95;;;27.38;;
59300;SDS011;45073;52.740;6.784;2022-12-01T05:46:08;53.20;;;24.90;;
59300;SDS011;45073;52.740;6.784;2022-12-01T05:48:33;55.65;;;26.83;;
59300;SDS011;45073;52.740;6.784;2022-12-01T05:50:59;53.75;;;24.70;;
59300;SDS011;45073;52.740;6.784;2022-12-01T05:53:31;58.85;;;27.88;;
59300;SDS011;45073;52.740;6.784;2022-12-01T05:55:56;54.53;;;27.08;;
59300;SDS011;45073;52.740;6.784;2022-12-01T05:58:22;58.35;;;28.63;;
59300;SDS011;45073;52.740;6.784;2022-12-01T06:00:47;58.30;;;27.48;;
59300;SDS011;45073;52.740;6.784;2022-12-01T06:03:13;55.90;;;26.25;;
59300;SDS011;45073;52.740;6.784;2022-12-01T06:05:39;56.83;;;27.52;;
59300;SDS011;45073;52.740;6.784;2022-12-01T06:08:05;57.35;;;27.52;;
59300;SDS011;45073;52.740;6.784;2022-12-01T06:10:31;63.53;;;30.25;;
59300;SDS011;45073;52.740;6.784;2022-12-01T06:12:56;60.25;;;26.65;;
59300;SDS011;45073;52.740;6.784;2022-12-01T06:15:22;58.45;;;25.73;;
59300;SDS011;45073;52.740;6.784;2022-12-01T06:17:47;55.15;;;27.90;;
59300;SDS011;45073;52.740;6.784;2022-12-01T06:20:13;60.00;;;29.17;;
59300;SDS011;45073;52.740;6.784;2022-12-01T06:22:39;58.28;;;26.85;;
59300;SDS011;45073;52.740;6.784;2022-12-01T06:25:04;54.53;;;25.42;;
59300;SDS011;45073;52.740;6.784;2022-12-01T06:27:31;60.25;;;25.55;;
59300;SDS011;45073;52.740;6.784;2022-12-01T06:29:56;58.35;;;27.52;;
59300;SDS011;45073;52.740;6.784;2022-12-01T06:32:22;54.40;;;25.70;;
59300;SDS011;45073;52.740;6.784;2022-12-01T06:34:47;57.75;;;25.73;;
59300;SDS011;45073;52.740;6.784;2022-12-01T06:37:13;59.83;;;28.48;;
59300;SDS011;45073;52.740;6.784;2022-12-01T06:39:39;59.55;;;27.92;;
59300;SDS011;45073;52.740;6.784;2022-12-01T06:42:05;59.15;;;27.20;;
59300;SDS011;45073;52.740;6.784;2022-12-01T06:44:31;61.35;;;30.08;;
59300;SDS011;45073;52.740;6.784;2022-12-01T06:46:56;58.75;;;29.23;;
59300;SDS011;45073;52.740;6.784;2022-12-01T06:49:22;61.60;;;27.50;;
59300;SDS011;45073;52.740;6.784;2022-12-01T06:51:48;59.58;;;29.35;;
59300;SDS011;45073;52.740;6.784;2022-12-01T06:54:14;60.08;;;27.90;;
59300;SDS011;45073;52.740;6.784;2022-12-01T06:56:41;62.30;;;28.77;;
59300;SDS011;45073;52.740;6.784;2022-12-01T06:59:07;57.88;;;28.02;;
59300;SDS011;45073;52.740;6.784;2022-12-01T07:01:33;56.83;;;28.20;;
59300;SDS011;45073;52.740;6.784;2022-12-01T07:03:59;54.20;;;25.60;;
59300;SDS011;45073;52.740;6.784;2022-12-01T07:06:25;59.80;;;27.67;;
59300;SDS011;45073;52.740;6.784;2022-12-01T07:08:51;60.90;;;27.52;;
59300;SDS011;45073;52.740;6.784;2022-12-01T07:11:17;56.80;;;27.02;;
59300;SDS011;45073;52.740;6.784;2022-12-01T07:13:43;57.33;;;27.70;;
59300;SDS011;45073;52.740;6.784;2022-12-01T07:16:13;57.28;;;27.42;;
59300;SDS011;45073;52.740;6.784;2022-12-01T07:18:39;57.40;;;26.20;;
59300;SDS011;45073;52.740;6.784;2022-12-01T07:21:06;60.88;;;28.10;;
59300;SDS011;45073;52.740;6.784;2022-12-01T07:23:34;64.18;;;26.23;;
59300;SDS011;45073;52.740;6.784;2022-12-01T07:28:34;52.95;;;26.50;;
59300;SDS011;45073;52.740;6.784;2022-12-01T07:31:10;61.00;;;25.95;;
59300;SDS011;45073;52.740;6.784;2022-12-01T07:33:40;53.30;;;25.77;;
59300;SDS011;45073;52.740;6.784;2022-12-01T07:36:06;56.30;;;25.88;;
59300;SDS011;45073;52.740;6.784;2022-12-01T07:38:33;50.45;;;23.02;;
59300;SDS011;45073;52.740;6.784;2022-12-01T07:41:00;61.42;;;28.52;;
59300;SDS011;45073;52.740;6.784;2022-12-01T07:43:28;51.53;;;25.65;;
59300;SDS011;45073;52.740;6.784;2022-12-01T07:45:54;56.25;;;25.95;;
59300;SDS011;45073;52.740;6.784;2022-12-01T07:48:20;56.80;;;26.73;;
59300;SDS011;45073;52.740;6.784;2022-12-01T07:50:45;59.33;;;26.58;;
59300;SDS011;45073;52.740;6.784;2022-12-01T07:53:11;51.65;;;25.75;;
59300;SDS011;45073;52.740;6.784;2022-12-01T07:55:37;57.45;;;26.50;;
59300;SDS011;45073;52.740;6.784;2022-12-01T07:58:02;60.45;;;27.60;;
59300;SDS011;45073;52.740;6.784;2022-12-01T08:00:28;59.92;;;26.30;;
59300;SDS011;45073;52.740;6.784;2022-12-01T08:02:53;54.88;;;25.50;;
59300;SDS011;45073;52.740;6.784;2022-12-01T08:05:19;54.13;;;26.02;;
59300;SDS011;45073;52.740;6.784;2022-12-01T08:07:44;55.25;;;25.83;;
59300;SDS011;45073;52.740;6.784;2022-12-01T08:10:10;54.60;;;25.70;;
59300;SDS011;45073;52.740;6.784;2022-12-01T08:12:36;56.00;;;26.15;;
59300;SDS011;45073;52.740;6.784;2022-12-01T08:15:02;54.63;;;25.75;;
59300;SDS011;45073;52.740;6.784;2022-12-01T08:17:28;61.60;;;26.67;;
59300;SDS011;45073;52.740;6.784;2022-12-01T08:19:53;62.90;;;27.73;;
59300;SDS011;45073;52.740;6.784;2022-12-01T08:22:19;58.17;;;25.65;;
59300;SDS011;45073;52.740;6.784;2022-12-01T08:24:44;60.70;;;26.83;;
59300;SDS011;45073;52.740;6.784;2022-12-01T08:27:10;57.88;;;27.95;;
59300;SDS011;45073;52.740;6.784;2022-12-01T08:29:36;56.00;;;29.30;;
59300;SDS011;45073;52.740;6.784;2022-12-01T08:32:02;58.72;;;29.00;;
59300;SDS011;45073;52.740;6.784;2022-12-01T08:34:27;58.00;;;29.15;;
59300;SDS011;45073;52.740;6.784;2022-12-01T08:36:53;55.35;;;26.42;;
59300;SDS011;45073;52.740;6.784;2022-12-01T08:39:19;59.47;;;26.90;;
59300;SDS011;45073;52.740;6.784;2022-12-01T08:41:44;59.88;;;28.80;;
59300;SDS011;45073;52.740;6.784;2022-12-01T08:44:10;55.53;;;25.88;;
59300;SDS011;45073;52.740;6.784;2022-12-01T08:46:36;59.55;;;29.40;;
59300;SDS011;45073;52.740;6.784;2022-12-01T08:49:05;60.47;;;27.45;;
59300;SDS011;45073;52.740;6.784;2022-12-01T08:51:31;60.72;;;28.95;;
59300;SDS011;45073;52.740;6.784;2022-12-01T08:53:57;59.55;;;28.00;;
59300;SDS011;45073;52.740;6.784;2022-12-01T08:56:28;59.35;;;29.92;;
59300;SDS011;45073;52.740;6.784;2022-12-01T08:58:56;56.80;;;26.85;;
59300;SDS011;45073;52.740;6.784;2022-12-01T09:01:22;63.58;;;28.35;;
59300;SDS011;45073;52.740;6.784;2022-12-01T09:03:49;56.15;;;27.83;;
59300;SDS011;45073;52.740;6.784;2022-12-01T09:06:29;55.30;;;25.83;;
59300;SDS011;45073;52.740;6.784;2022-12-01T09:08:57;61.13;;;27.85;;
59300;SDS011;45073;52.740;6.784;2022-12-01T09:11:24;59.15;;;26.20;;
59300;SDS011;45073;52.740;6.784;2022-12-01T09:13:50;57.85;;;26.10;;
59300;SDS011;45073;52.740;6.784;2022-12-01T09:16:16;58.03;;;25.98;;
59300;SDS011;45073;52.740;6.784;2022-12-01T09:18:43;56.25;;;26.25;;
59300;SDS011;45073;52.740;6.784;2022-12-01T09:21:10;57.33;;;26.92;;
59300;SDS011;45073;52.740;6.784;2022-12-01T09:23:38;61.58;;;25.42;;
59300;SDS011;45073;52.740;6.784;2022-12-01T09:26:04;63.40;;;28.25;;
59300;SDS011;45073;52.740;6.784;2022-12-01T09:28:29;60.60;;;27.02;;
59300;SDS011;45073;52.740;6.784;2022-12-01T09:30:55;56.05;;;26.50;;
59300;SDS011;45073;52.740;6.784;2022-12-01T09:33:27;55.13;;;24.38;;
59300;SDS011;45073;52.740;6.784;2022-12-01T09:35:56;63.75;;;29.02;;
59300;SDS011;45073;52.740;6.784;2022-12-01T09:38:23;63.28;;;26.75;;
59300;SDS011;45073;52.740;6.784;2022-12-01T09:40:48;56.95;;;27.10;;
59300;SDS011;45073;52.740;6.784;2022-12-01T09:43:16;54.38;;;25.52;;
59300;SDS011;45073;52.740;6.784;2022-12-01T09:45:48;56.83;;;24.83;;
59300;SDS011;45073;52.740;6.784;2022-12-01T09:48:42;60.08;;;24.65;;
59300;SDS011;45073;52.740;6.784;2022-12-01T09:51:16;51.78;;;24.65;;
59300;SDS011;45073;52.740;6.784;2022-12-01T09:53:45;57.10;;;25.10;;
59300;SDS011;45073;52.740;6.784;2022-12-01T09:56:22;55.78;;;25.77;;
59300;SDS011;45073;52.740;6.784;2022-12-01T09:59:00;57.33;;;25.52;;
59300;SDS011;45073;52.740;6.784;2022-12-01T10:01:32;57.30;;;26.92;;
59300;SDS011;45073;52.740;6.784;2022-12-01T10:04:08;52.80;;;24.60;;
59300;SDS011;45073;52.740;6.784;2022-12-01T10:06:46;52.33;;;25.92;;
59300;SDS011;45073;52.740;6.784;2022-12-01T10:12:19;56.55;;;24.98;;
59300;SDS011;45073;52.740;6.784;2022-12-01T10:14:52;52.65;;;26.10;;
59300;SDS011;45073;52.740;6.784;2022-12-01T10:25:54;47.13;;;23.85;;
59300;SDS011;45073;52.740;6.784;2022-12-01T10:28:41;49.92;;;24.85;;
59300;SDS011;45073;52.740;6.784;2022-12-01T10:31:20;49.40;;;24.27;;
59300;SDS011;45073;52.740;6.784;2022-12-01T10:34:04;53.25;;;24.98;;
59300;SDS011;45073;52.740;6.784;2022-12-01T10:36:34;50.17;;;23.30;;
59300;SDS011;45073;52.740;6.784;2022-12-01T10:39:01;49.88;;;23.65;;
59300;SDS011;45073;52.740;6.784;2022-12-01T10:41:29;51.08;;;23.85;;
59300;SDS011;45073;52.740;6.784;2022-12-01T10:43:58;45.08;;;22.27;;
59300;SDS011;45073;52.740;6.784;2022-12-01T10:46:27;54.55;;;25.77;;
59300;SDS011;45073;52.740;6.784;2022-12-01T10:49:06;55.13;;;25.35;;
59300;SDS011;45073;52.740;6.784;2022-12-01T10:51:44;48.40;;;21.80;;
59300;SDS011;45073;52.740;6.784;2022-12-01T10:54:22;48.15;;;23.30;;
59300;SDS011;45073;52.740;6.784;2022-12-01T10:56:55;47.70;;;24.10;;
59300;SDS011;45073;52.740;6.784;2022-12-01T11:01:56;51.85;;;23.80;;
59300;SDS011;45073;52.740;6.784;2022-12-01T11:06:55;43.83;;;22.88;;
59300;SDS011;45073;52.740;6.784;2022-12-01T11:09:25;47.10;;;22.45;;
59300;SDS011;45073;52.740;6.784;2022-12-01T11:11:56;39.75;;;20.80;;
59300;SDS011;45073;52.740;6.784;2022-12-01T11:14:35;49.80;;;23.83;;
59300;SDS011;45073;52.740;6.784;2022-12-01T11:19:51;48.33;;;22.88;;
59300;SDS011;45073;52.740;6.784;2022-12-01T11:22:18;46.97;;;24.88;;
59300;SDS011;45073;52.740;6.784;2022-12-01T11:27:36;47.03;;;21.33;;
59300;SDS011;45073;52.740;6.784;2022-12-01T11:32:50;41.28;;;21.13;;
59300;SDS011;45073;52.740;6.784;2022-12-01T11:35:18;41.07;;;20.80;;
59300;SDS011;45073;52.740;6.784;2022-12-01T11:37:50;46.17;;;24.00;;
59300;SDS011;45073;52.740;6.784;2022-12-01T11:40:28;51.50;;;23.98;;
59300;SDS011;45073;52.740;6.784;2022-12-01T11:42:58;43.47;;;22.67;;
59300;SDS011;45073;52.740;6.784;2022-12-01T11:45:26;45.45;;;22.35;;
59300;SDS011;45073;52.740;6.784;2022-12-01T11:50:37;47.38;;;23.42;;
59300;SDS011;45073;52.740;6.784;2022-12-01T11:53:24;45.85;;;22.60;;
59300;SDS011;45073;52.740;6.784;2022-12-01T11:59:02;43.63;;;19.27;;
59300;SDS011;45073;52.740;6.784;2022-12-01T12:06:45;44.60;;;23.15;;
59300;SDS011;45073;52.740;6.784;2022-12-01T12:09:41;42.92;;;20.77;;
59300;SDS011;45073;52.740;6.784;2022-12-01T12:15:01;44.33;;;21.02;;
59300;SDS011;45073;52.740;6.784;2022-12-01T12:26:01;38.22;;;19.70;;
59300;SDS011;45073;52.740;6.784;2022-12-01T12:35:18;40.90;;;19.38;;
59300;SDS011;45073;52.740;6.784;2022-12-01T12:38:03;39.70;;;21.23;;
59300;SDS011;45073;52.740;6.784;2022-12-01T12:46:10;39.85;;;20.23;;
59300;SDS011;45073;52.740;6.784;2022-12-01T12:48:42;43.17;;;21.80;;
59300;SDS011;45073;52.740;6.784;2022-12-01T12:51:33;36.28;;;19.13;;
59300;SDS011;45073;52.740;6.784;2022-12-01T12:56:37;42.20;;;21.38;;
59300;SDS011;45073;52.740;6.784;2022-12-01T12:59:10;39.83;;;20.88;;
59300;SDS011;45073;52.740;6.784;2022-12-01T13:01:49;41.65;;;20.27;;
59300;SDS011;45073;52.740;6.784;2022-12-01T13:04:22;36.10;;;19.15;;
59300;SDS011;45073;52.740;6.784;2022-12-01T13:07:03;36.90;;;19.73;;
59300;SDS011;45073;52.740;6.784;2022-12-01T13:09:44;38.35;;;19.85;;
59300;SDS011;45073;52.740;6.784;2022-12-01T13:12:30;31.77;;;18.52;;
59300;SDS011;45073;52.740;6.784;2022-12-01T13:15:05;33.35;;;18.73;;
59300;SDS011;45073;52.740;6.784;2022-12-01T13:17:50;37.67;;;18.73;;
59300;SDS011;45073;52.740;6.784;2022-12-01T13:20:24;35.55;;;18.58;;
59300;SDS011;45073;52.740;6.784;2022-12-01T13:22:52;36.45;;;18.13;;
59300;SDS011;45073;52.740;6.784;2022-12-01T13:25:53;35.30;;;18.63;;
59300;SDS011;45073;52.740;6.784;2022-12-01T13:28:20;33.70;;;17.98;;
59300;SDS011;45073;52.740;6.784;2022-12-01T13:33:31;36.25;;;18.67;;
59300;SDS011;45073;52.740;6.784;2022-12-01T13:35:57;33.15;;;18.40;;
59300;SDS011;45073;52.740;6.784;2022-12-01T13:38:30;33.00;;;17.88;;
59300;SDS011;45073;52.740;6.784;2022-12-01T13:41:10;35.90;;;18.30;;
59300;SDS011;45073;52.740;6.784;2022-12-01T13:43:52;33.28;;;18.45;;
59300;SDS011;45073;52.740;6.784;2022-12-01T13:46:47;31.80;;;17.88;;
59300;SDS011;45073;52.740;6.784;2022-12-01T13:57:33;37.30;;;19.13;;
59300;SDS011;45073;52.740;6.784;2022-12-01T14:02:25;36.38;;;19.02;;
59300;SDS011;45073;52.740;6.784;2022-12-01T14:04:52;33.55;;;19.23;;
59300;SDS011;45073;52.740;6.784;2022-12-01T14:07:31;34.45;;;17.15;;
59300;SDS011;45073;52.740;6.784;2022-12-01T14:10:15;30.77;;;17.90;;
59300;SDS011;45073;52.740;6.784;2022-12-01T14:12:53;33.10;;;18.10;;
59300;SDS011;45073;52.740;6.784;2022-12-01T14:15:30;34.28;;;19.20;;
59300;SDS011;45073;52.740;6.784;2022-12-01T14:18:04;33.58;;;18.58;;
59300;SDS011;45073;52.740;6.784;2022-12-01T14:20:35;33.83;;;18.23;;
59300;SDS011;45073;52.740;6.784;2022-12-01T14:25:38;31.02;;;18.02;;
59300;SDS011;45073;52.740;6.784;2022-12-01T14:28:11;31.08;;;17.45;;
59300;SDS011;45073;52.740;6.784;2022-12-01T14:36:12;35.08;;;19.50;;
59300;SDS011;45073;52.740;6.784;2022-12-01T14:38:45;33.95;;;19.60;;
59300;SDS011;45073;52.740;6.784;2022-12-01T14:41:14;33.20;;;17.50;;
59300;SDS011;45073;52.740;6.784;2022-12-01T14:43:46;36.67;;;19.35;;
59300;SDS011;45073;52.740;6.784;2022-12-01T14:46:27;35.53;;;18.10;;
59300;SDS011;45073;52.740;6.784;2022-12-01T14:49:02;37.05;;;19.00;;
59300;SDS011;45073;52.740;6.784;2022-12-01T14:51:30;34.50;;;18.67;;
59300;SDS011;45073;52.740;6.784;2022-12-01T14:53:59;37.03;;;19.15;;
59300;SDS011;45073;52.740;6.784;2022-12-01T14:56:28;33.60;;;18.33;;
59300;SDS011;45073;52.740;6.784;2022-12-01T14:58:59;35.78;;;18.73;;
59300;SDS011;45073;52.740;6.784;2022-12-01T15:01:37;38.25;;;21.00;;
59300;SDS011;45073;52.740;6.784;2022-12-01T15:04:04;34.78;;;19.13;;
59300;SDS011;45073;52.740;6.784;2022-12-01T15:06:30;34.90;;;20.17;;
59300;SDS011;45073;52.740;6.784;2022-12-01T15:11:47;35.22;;;21.00;;
59300;SDS011;45073;52.740;6.784;2022-12-01T15:17:01;40.95;;;22.00;;
59300;SDS011;45073;52.740;6.784;2022-12-01T15:19:36;43.47;;;21.90;;
59300;SDS011;45073;52.740;6.784;2022-12-01T15:22:04;44.90;;;22.90;;
59300;SDS011;45073;52.740;6.784;2022-12-01T15:24:40;43.00;;;21.65;;
59300;SDS011;45073;52.740;6.784;2022-12-01T15:29:52;46.20;;;22.63;;
59300;SDS011;45073;52.740;6.784;2022-12-01T15:32:19;45.25;;;24.30;;
59300;SDS011;45073;52.740;6.784;2022-12-01T15:34:47;51.42;;;23.83;;
59300;SDS011;45073;52.740;6.784;2022-12-01T15:37:22;49.28;;;23.63;;
59300;SDS011;45073;52.740;6.784;2022-12-01T15:39:54;48.30;;;24.90;;
59300;SDS011;45073;52.740;6.784;2022-12-01T15:45:03;53.10;;;27.25;;
59300;SDS011;45073;52.740;6.784;2022-12-01T15:47:50;48.60;;;26.00;;
59300;SDS011;45073;52.740;6.784;2022-12-01T15:50:35;54.08;;;27.10;;
59300;SDS011;45073;52.740;6.784;2022-12-01T15:53:04;47.40;;;23.40;;
59300;SDS011;45073;52.740;6.784;2022-12-01T15:55:44;52.90;;;25.90;;
59300;SDS011;45073;52.740;6.784;2022-12-01T15:58:17;55.80;;;25.83;;
59300;SDS011;45073;52.740;6.784;2022-12-01T16:00:54;52.15;;;25.67;;
59300;SDS011;45073;52.740;6.784;2022-12-01T16:03:29;51.10;;;24.23;;
59300;SDS011;45073;52.740;6.784;2022-12-01T16:05:56;49.67;;;27.05;;
59300;SDS011;45073;52.740;6.784;2022-12-01T16:08:23;51.97;;;26.05;;
59300;SDS011;45073;52.740;6.784;2022-12-01T16:11:10;53.45;;;26.27;;
59300;SDS011;45073;52.740;6.784;2022-12-01T16:16:38;54.15;;;25.35;;
59300;SDS011;45073;52.740;6.784;2022-12-01T16:21:32;49.33;;;25.45;;
59300;SDS011;45073;52.740;6.784;2022-12-01T16:24:10;53.95;;;27.73;;
59300;SDS011;45073;52.740;6.784;2022-12-01T16:26:45;48.17;;;24.10;;
59300;SDS011;45073;52.740;6.784;2022-12-01T16:29:17;52.50;;;27.80;;
59300;SDS011;45073;52.740;6.784;2022-12-01T16:31:44;57.90;;;27.17;;
59300;SDS011;45073;52.740;6.784;2022-12-01T16:34:11;54.00;;;25.38;;
59300;SDS011;45073;52.740;6.784;2022-12-01T16:36:39;50.90;;;26.88;;
59300;SDS011;45073;52.740;6.784;2022-12-01T16:39:05;61.97;;;27.98;;
59300;SDS011;45073;52.740;6.784;2022-12-01T16:41:32;55.90;;;27.90;;
59300;SDS011;45073;52.740;6.784;2022-12-01T16:43:59;52.10;;;26.40;;
59300;SDS011;45073;52.740;6.784;2022-12-01T16:46:26;56.97;;;29.40;;
59300;SDS011;45073;52.740;6.784;2022-12-01T16:48:51;53.50;;;28.00;;
59300;SDS011;45073;52.740;6.784;2022-12-01T16:51:17;59.75;;;28.63;;
59300;SDS011;45073;52.740;6.784;2022-12-01T16:53:43;55.90;;;30.45;;